Time;durP1;ratioP1;P1;durP2;ratioP2;P2;SDS_P1;SDS_P2;PMS_P1;PMS_P2;Temp;Humidity;BMP_temperature;BMP_pressure;BME280_temperature;BME280_humidity;BME280_pressure;Samples;Min_cycle;Max_cycle;Signal;HPM_P1;HPM_P2
2022/05/01 00:01:14;;;;;;;9.93;7.65;;;;;;;11.06;63.67;102403.03;4958503;28;20028;-86
2022/05/01 00:03:41;;;;;;;11.43;7.95;;;;;;;11.00;64.35;102401.34;4985610;28;20061;-85
2022/05/01 00:06:08;;;;;;;10.65;7.80;;;;;;;10.95;64.60;102397.91;4974269;28;20393;-86
2022/05/01 00:08:36;;;;;;;12.43;8.18;;;;;;;10.89;62.57;102392.72;4970503;28;20469;-85
2022/05/01 00:11:01;;;;;;;9.90;7.78;;;;;;;10.93;62.36;102389.13;4991478;28;20490;-86
2022/05/01 00:13:28;;;;;;;9.57;7.43;;;;;;;10.89;62.03;102387.41;4987526;28;20076;-85
2022/05/01 00:15:54;;;;;;;9.82;7.40;;;;;;;10.97;62.17;102394.34;4973084;28;20118;-86
2022/05/01 00:18:20;;;;;;;12.25;8.07;;;;;;;10.93;62.16;102383.84;4972394;28;20100;-86
2022/05/01 00:20:46;;;;;;;11.55;8.30;;;;;;;10.88;62.35;102389.19;4979747;28;20105;-85
2022/05/01 00:23:12;;;;;;;10.90;8.45;;;;;;;10.84;62.41;102376.03;4971960;28;20061;-86
2022/05/01 00:25:41;;;;;;;11.93;8.18;;;;;;;10.94;62.54;102399.66;4979761;28;20117;-87
2022/05/01 00:28:07;;;;;;;11.75;7.78;;;;;;;10.84;62.87;102376.03;4997251;28;20065;-85
2022/05/01 00:30:33;;;;;;;11.38;8.10;;;;;;;10.91;64.16;102383.88;4991196;28;20220;-85
2022/05/01 00:38:26;;;;;;;12.90;8.00;;;;;;;10.94;62.98;102377.63;4990603;28;20071;-86
2022/05/01 00:40:52;;;;;;;10.68;8.00;;;;;;;11.01;62.82;102384.59;4997119;28;20045;-87
2022/05/01 00:43:17;;;;;;;11.57;8.10;;;;;;;10.93;63.12;102375.88;4990170;28;20049;-85
2022/05/01 00:45:42;;;;;;;12.38;8.77;;;;;;;10.96;63.14;102374.06;4991490;28;20482;-85
2022/05/01 00:48:08;;;;;;;9.52;7.57;;;;;;;10.98;63.15;102374.03;4994311;28;20018;-85
2022/05/01 00:50:33;;;;;;;11.00;8.45;;;;;;;10.99;62.97;102378.44;4993073;28;20056;-85
2022/05/01 00:53:00;;;;;;;11.00;8.35;;;;;;;10.95;62.27;102376.72;4991093;28;20037;-86
2022/05/01 00:55:25;;;;;;;12.25;8.38;;;;;;;10.92;64.72;102379.44;4975942;28;20034;-85
2022/05/01 00:57:51;;;;;;;13.13;9.25;;;;;;;10.86;63.74;102375.09;4975612;28;20066;-85
2022/05/01 01:00:21;;;;;;;11.98;8.88;;;;;;;10.87;63.43;102379.53;4975670;28;20026;-86
2022/05/01 01:02:47;;;;;;;10.77;8.15;;;;;;;10.81;63.53;102376.97;4972993;28;20560;-87
2022/05/01 01:05:13;;;;;;;12.13;9.10;;;;;;;10.86;63.19;102382.16;4978002;28;20030;-86
2022/05/01 01:07:38;;;;;;;14.60;9.27;;;;;;;10.81;62.69;102362.84;4990327;28;20049;-85
2022/05/01 01:10:05;;;;;;;13.45;8.50;;;;;;;10.88;65.80;102369.81;4976594;28;20030;-86
2022/05/01 01:15:14;;;;;;;14.00;9.35;;;;;;;10.79;63.97;102375.25;4995294;28;20516;-85
2022/05/01 01:17:41;;;;;;;13.07;8.93;;;;;;;10.76;64.05;102373.50;4976122;28;20034;-86
2022/05/01 01:20:11;;;;;;;12.13;9.00;;;;;;;10.77;63.85;102375.28;4992787;28;20099;-85
2022/05/01 01:22:40;;;;;;;13.45;9.65;;;;;;;10.78;63.55;102378.81;4990687;28;20034;-87
2022/05/01 01:25:10;;;;;;;13.57;9.30;;;;;;;10.77;65.74;102372.66;4989791;28;21119;-87
2022/05/01 01:27:36;;;;;;;16.23;9.15;;;;;;;10.75;65.04;102382.34;4993185;28;20370;-86
2022/05/01 01:32:48;;;;;;;16.48;10.02;;;;;;;10.66;65.46;102374.56;4986664;28;20588;-85
2022/05/01 01:35:15;;;;;;;12.75;9.30;;;;;;;10.66;64.29;102367.50;4972665;28;20111;-87
2022/05/01 01:37:46;;;;;;;12.38;9.07;;;;;;;10.66;64.18;102356.94;4975539;28;20084;-86
2022/05/01 01:40:16;;;;;;;13.75;10.18;;;;;;;10.65;64.54;102352.53;4975730;28;20040;-86
2022/05/01 01:42:42;;;;;;;13.38;9.93;;;;;;;10.65;64.36;102349.03;4972120;28;20524;-85
2022/05/01 01:45:08;;;;;;;13.85;9.70;;;;;;;10.71;63.87;102357.72;4991282;28;20030;-85
2022/05/01 01:47:33;;;;;;;14.25;9.20;;;;;;;10.67;63.78;102355.16;4996857;28;20028;-85
2022/05/01 01:49:59;;;;;;;12.98;9.70;;;;;;;10.71;63.96;102363.00;4993654;28;20042;-85
2022/05/01 01:52:24;;;;;;;15.10;9.65;;;;;;;10.67;63.85;102345.44;4993429;28;20053;-85
2022/05/01 01:54:51;;;;;;;14.10;9.93;;;;;;;10.68;64.91;102351.63;4990955;28;20049;-86
2022/05/01 01:57:16;;;;;;;15.95;9.85;;;;;;;10.69;65.48;102364.81;4978459;28;20062;-85
2022/05/01 01:59:42;;;;;;;14.13;10.20;;;;;;;10.65;63.55;102356.97;4993228;28;20026;-86
2022/05/01 02:02:08;;;;;;;13.18;10.38;;;;;;;10.64;66.27;102356.09;4978574;28;20034;-86
2022/05/01 02:04:34;;;;;;;12.27;10.23;;;;;;;10.67;64.87;102365.72;4975543;28;20484;-86
2022/05/01 02:06:59;;;;;;;13.80;9.85;;;;;;;10.65;64.50;102354.31;4976341;28;20049;-85
2022/05/01 02:09:25;;;;;;;15.35;10.73;;;;;;;10.68;64.33;102370.16;4978689;28;20507;-85
2022/05/01 02:11:50;;;;;;;14.18;9.77;;;;;;;10.64;67.97;102369.31;4973059;28;20480;-86
2022/05/01 02:14:15;;;;;;;15.07;10.30;;;;;;;10.56;64.64;102351.81;4998837;28;20092;-86
2022/05/01 02:16:40;;;;;;;15.73;10.32;;;;;;;10.52;65.15;102344.81;4992183;28;20448;-85
2022/05/01 02:19:06;;;;;;;15.32;9.98;;;;;;;10.47;64.97;102345.75;4977686;28;20457;-85
2022/05/01 02:21:34;;;;;;;14.48;10.57;;;;;;;10.46;65.10;102354.59;4997308;28;20412;-85
2022/05/01 02:24:01;;;;;;;15.55;10.57;;;;;;;10.51;65.28;102353.66;4991036;28;20038;-85
2022/05/01 02:26:27;;;;;;;16.80;10.85;;;;;;;10.42;65.05;102344.09;4975354;28;20065;-85
2022/05/01 02:28:52;;;;;;;17.35;10.23;;;;;;;10.43;65.09;102343.19;4977818;28;20520;-85
2022/05/01 02:31:18;;;;;;;16.38;11.13;;;;;;;10.42;64.97;102337.03;4975042;28;20026;-86
2022/05/01 02:33:44;;;;;;;14.25;10.20;;;;;;;10.37;64.82;102320.38;4981753;28;20032;-87
2022/05/01 02:36:10;;;;;;;15.82;10.40;;;;;;;10.53;64.36;102346.56;4994317;28;20038;-85
2022/05/01 02:38:36;;;;;;;15.45;10.80;;;;;;;10.36;64.20;102317.75;4994976;28;20385;-86
2022/05/01 02:41:02;;;;;;;19.17;10.85;;;;;;;10.32;64.80;102309.00;4991064;28;20469;-85
2022/05/01 02:43:28;;;;;;;19.10;11.15;;;;;;;10.41;64.99;102334.44;4988989;28;20289;-85
2022/05/01 02:45:53;;;;;;;17.75;11.45;;;;;;;10.36;65.32;102330.97;4992317;28;20029;-86
2022/05/01 02:48:20;;;;;;;17.85;11.10;;;;;;;10.38;65.13;102331.81;4976683;28;20021;-85
2022/05/01 02:50:45;;;;;;;18.15;11.25;;;;;;;10.28;65.46;102325.81;4972725;28;20034;-85
2022/05/01 02:53:11;;;;;;;19.48;10.93;;;;;;;10.36;65.08;102341.56;4993577;28;20026;-87
2022/05/01 02:55:36;;;;;;;16.42;11.15;;;;;;;10.31;65.25;102333.69;4996312;28;20036;-85
2022/05/01 02:58:02;;;;;;;15.13;10.77;;;;;;;10.31;65.74;102332.81;4996168;28;20033;-86
2022/05/01 03:00:27;;;;;;;15.02;11.00;;;;;;;10.31;64.25;102332.81;4973709;28;20037;-86
2022/05/01 03:02:55;;;;;;;14.93;10.73;;;;;;;10.26;64.84;102330.25;4997456;28;20042;-85
2022/05/01 03:05:21;;;;;;;18.33;11.50;;;;;;;10.30;64.50;102329.28;4993580;28;20312;-87
2022/05/01 03:07:48;;;;;;;14.95;10.43;;;;;;;10.29;64.42;102330.19;4996886;28;20036;-85
2022/05/01 03:10:13;;;;;;;17.52;11.20;;;;;;;10.27;67.58;102328.47;4975752;28;20527;-86
2022/05/01 03:12:39;;;;;;;15.63;11.10;;;;;;;10.27;65.58;102326.69;4993162;28;20026;-85
2022/05/01 03:15:06;;;;;;;16.42;10.77;;;;;;;10.27;66.00;102321.41;4993753;28;20037;-85
2022/05/01 03:22:10;;;;;;;15.75;11.13;;;;;;;10.31;68.32;102328.41;4973159;28;20371;-85
2022/05/01 03:23:01;;;;;;;14.70;10.48;;;;;;;10.25;64.72;102327.59;4991681;28;20065;-86
2022/05/01 03:25:26;;;;;;;16.48;10.68;;;;;;;10.18;64.91;102326.81;4992609;28;20022;-85
2022/05/01 03:27:53;;;;;;;16.67;10.90;;;;;;;10.17;64.53;102319.78;4996738;28;20022;-87
2022/05/01 03:30:19;;;;;;;19.17;11.45;;;;;;;10.13;65.00;102318.94;4989255;28;20023;-86
2022/05/01 03:32:45;;;;;;;15.88;10.40;;;;;;;10.11;64.83;102312.78;4982127;28;20035;-85
2022/05/01 03:35:10;;;;;;;17.33;10.98;;;;;;;10.12;65.15;102317.22;4990257;28;20030;-86
2022/05/01 03:37:36;;;;;;;17.23;11.27;;;;;;;10.18;65.63;102318.88;4993202;28;20022;-86
2022/05/01 03:40:03;;;;;;;16.42;11.18;;;;;;;10.14;66.67;102309.25;4994886;28;20040;-86
2022/05/01 03:42:29;;;;;;;16.63;10.80;;;;;;;10.00;65.77;102300.66;4993408;28;20026;-86
2022/05/01 03:44:54;;;;;;;16.98;11.18;;;;;;;9.97;66.41;102309.47;4990509;28;20450;-85
2022/05/01 03:47:20;;;;;;;13.23;10.15;;;;;;;9.95;65.30;102306.00;4994397;28;20527;-86
2022/05/01 03:49:45;;;;;;;15.23;10.43;;;;;;;9.92;65.99;102300.75;4988294;28;20153;-85
2022/05/01 03:52:11;;;;;;;18.15;11.00;;;;;;;9.97;67.77;102309.47;4993730;28;20524;-85
2022/05/01 03:54:36;;;;;;;17.60;11.80;;;;;;;9.93;66.07;102303.38;4973839;28;20034;-86
2022/05/01 03:57:02;;;;;;;15.70;10.93;;;;;;;9.83;66.93;102293.81;4975625;28;20126;-85
2022/05/01 03:59:29;;;;;;;18.42;11.30;;;;;;;9.81;66.98;102295.63;4992254;28;20120;-86
2022/05/01 04:01:55;;;;;;;17.80;11.10;;;;;;;9.85;67.37;102304.38;4973684;28;20442;-86
2022/05/01 04:04:20;;;;;;;16.63;11.35;;;;;;;9.84;67.33;102314.06;4992785;28;20068;-85
2022/05/01 04:06:45;;;;;;;18.23;10.90;;;;;;;9.79;67.37;102305.34;4974632;28;20389;-84
2022/05/01 04:09:12;;;;;;;17.50;11.10;;;;;;;9.81;65.97;102302.66;4971983;28;20121;-85
2022/05/01 04:11:37;;;;;;;14.85;10.98;;;;;;;9.79;67.93;102297.41;4971073;28;20120;-85
2022/05/01 04:14:03;;;;;;;17.00;11.60;;;;;;;9.88;67.94;102318.41;4988449;28;20208;-85
2022/05/01 04:16:28;;;;;;;15.18;10.95;;;;;;;9.82;66.88;102297.34;4993697;28;20497;-85
2022/05/01 04:18:54;;;;;;;15.57;11.65;;;;;;;9.85;67.38;102313.19;4969882;28;20027;-85
2022/05/01 04:21:19;;;;;;;16.90;11.85;;;;;;;9.86;67.51;102311.41;4976140;28;20033;-86
2022/05/01 04:23:44;;;;;;;15.43;10.52;;;;;;;9.85;67.39;102305.25;4977176;28;20545;-85
2022/05/01 04:26:10;;;;;;;16.50;11.60;;;;;;;9.85;67.16;102313.19;4993491;28;20022;-85
2022/05/01 04:28:35;;;;;;;16.50;11.30;;;;;;;9.75;67.11;102293.06;4975613;28;20497;-86
2022/05/01 04:31:01;;;;;;;16.20;11.23;;;;;;;9.76;67.17;102301.88;4973247;28;20089;-86
2022/05/01 04:33:26;;;;;;;14.88;11.02;;;;;;;9.85;66.59;102309.66;4974968;28;20168;-86
2022/05/01 04:35:51;;;;;;;18.70;12.40;;;;;;;9.76;67.49;102294.81;4973809;28;20120;-87
2022/05/01 04:38:23;;;;;;;15.85;11.32;;;;;;;9.87;67.16;102314.00;4978232;28;20065;-86
2022/05/01 04:40:58;;;;;;;20.17;12.47;;;;;;;9.90;69.50;102310.47;4974505;28;20671;-85
2022/05/01 04:43:25;;;;;;;18.08;11.77;;;;;;;9.85;67.86;102312.31;4988832;28;20035;-86
2022/05/01 04:45:53;;;;;;;16.08;10.98;;;;;;;9.78;68.04;102315.91;4989120;28;20120;-86
2022/05/01 04:48:19;;;;;;;16.98;11.45;;;;;;;9.81;69.60;102313.22;4991771;28;20023;-85
2022/05/01 04:50:46;;;;;;;19.52;12.27;;;;;;;9.73;68.13;102301.88;4992824;28;20029;-85
2022/05/01 04:53:13;;;;;;;18.90;12.23;;;;;;;9.80;68.00;102317.66;4973206;28;20057;-85
2022/05/01 04:55:40;;;;;;;19.13;11.55;;;;;;;9.75;68.40;102321.25;4993663;28;20038;-86
2022/05/01 04:58:05;;;;;;;19.55;11.80;;;;;;;9.68;68.25;102310.75;4987530;28;20123;-86
2022/05/01 05:00:31;;;;;;;16.05;11.48;;;;;;;9.73;68.08;102309.81;4968791;28;20031;-85
2022/05/01 05:02:56;;;;;;;16.40;11.55;;;;;;;9.83;67.93;102329.91;4975806;28;20508;-86
2022/05/01 05:05:22;;;;;;;20.98;12.88;;;;;;;9.85;67.55;102317.59;4974117;28;20459;-86
2022/05/01 05:07:48;;;;;;;19.48;12.05;;;;;;;9.85;67.12;102322.88;4977093;28;20572;-86
2022/05/01 05:10:14;;;;;;;22.45;13.60;;;;;;;9.85;67.79;102322.88;4988647;28;20026;-86
2022/05/01 05:12:42;;;;;;;19.83;13.63;;;;;;;9.79;69.53;102315.00;4989714;28;20037;-86
2022/05/01 05:15:11;;;;;;;24.67;13.85;;;;;;;9.80;68.15;102322.06;4971153;28;20451;-86
2022/05/01 05:17:38;;;;;;;17.85;12.70;;;;;;;9.84;67.27;102327.28;4990889;28;20037;-86
2022/05/01 05:20:09;;;;;;;18.98;12.60;;;;;;;9.77;68.64;102315.03;4974047;28;20564;-86
2022/05/01 05:22:35;;;;;;;22.55;13.32;;;;;;;9.86;67.38;102327.25;4973856;28;20038;-86
2022/05/01 05:25:01;;;;;;;21.27;13.55;;;;;;;9.90;68.27;102328.97;4990953;28;20035;-87
2022/05/01 05:27:26;;;;;;;22.52;13.63;;;;;;;9.97;67.35;102331.47;4991774;28;20378;-87
2022/05/01 05:29:56;;;;;;;20.85;13.85;;;;;;;9.95;66.98;102327.13;4987013;28;20037;-88
2022/05/01 05:32:24;;;;;;;22.15;13.63;;;;;;;10.12;68.56;102334.84;4986778;28;20058;-86
2022/05/01 05:34:50;;;;;;;21.92;12.98;;;;;;;10.21;66.46;102339.94;4975597;28;20489;-86
2022/05/01 05:37:17;;;;;;;21.63;14.13;;;;;;;10.20;66.41;102339.09;4975799;28;20051;-86
2022/05/01 05:39:42;;;;;;;18.75;13.10;;;;;;;10.22;66.95;102334.66;4988218;28;20532;-87
2022/05/01 05:42:08;;;;;;;19.92;13.20;;;;;;;10.39;66.46;102346.78;4990614;28;20555;-86
2022/05/01 05:44:34;;;;;;;18.95;13.50;;;;;;;10.32;66.16;102332.78;4986729;28;20080;-86
2022/05/01 05:46:59;;;;;;;20.35;14.27;;;;;;;10.44;66.92;102342.28;4972218;28;20034;-87
2022/05/01 05:49:25;;;;;;;20.23;13.68;;;;;;;10.51;65.50;102343.94;4970013;28;20034;-86
2022/05/01 05:51:51;;;;;;;20.70;15.07;;;;;;;10.48;65.73;102341.34;4972635;28;20111;-86
2022/05/01 05:54:16;;;;;;;23.30;14.50;;;;;;;10.53;65.08;102349.22;4990175;28;20033;-86
2022/05/01 05:56:41;;;;;;;26.35;14.45;;;;;;;10.51;65.44;102348.38;4971867;28;20677;-86
2022/05/01 05:59:07;;;;;;;20.65;13.95;;;;;;;10.48;65.10;102346.63;4989023;28;20034;-86
2022/05/01 06:01:32;;;;;;;20.02;14.13;;;;;;;10.47;66.52;102355.47;4991567;28;20034;-86
2022/05/01 06:03:58;;;;;;;22.00;14.60;;;;;;;10.43;65.51;102336.13;4993350;28;20041;-86
2022/05/01 06:06:23;;;;;;;24.55;14.43;;;;;;;10.56;65.36;102357.09;4991847;28;20061;-88
2022/05/01 06:08:49;;;;;;;23.02;15.23;;;;;;;10.48;65.13;102342.22;4988914;28;20102;-86
2022/05/01 06:11:14;;;;;;;22.48;14.07;;;;;;;10.52;65.34;102345.69;4973515;28;20478;-87
2022/05/01 06:13:39;;;;;;;24.60;14.57;;;;;;;10.52;65.49;102352.75;4971501;28;20073;-86
2022/05/01 06:16:05;;;;;;;23.13;14.57;;;;;;;10.57;65.38;102356.19;4987400;28;20440;-86
2022/05/01 06:18:30;;;;;;;21.80;14.00;;;;;;;10.58;65.70;102350.88;4974249;28;20031;-86
2022/05/01 06:20:56;;;;;;;23.08;15.30;;;;;;;10.75;64.82;102358.56;4991616;28;20448;-86
2022/05/01 06:23:21;;;;;;;20.92;14.52;;;;;;;10.76;64.72;102355.00;4994198;28;20040;-86
2022/05/01 06:25:47;;;;;;;22.70;14.90;;;;;;;10.78;64.84;102349.69;4969914;28;20029;-86
2022/05/01 06:28:14;;;;;;;23.95;14.48;;;;;;;10.75;64.65;102342.69;4991498;28;20116;-86
2022/05/01 06:30:43;;;;;;;22.15;15.15;;;;;;;10.92;64.78;102367.09;4987627;28;20674;-86
2022/05/01 06:33:10;;;;;;;24.77;15.65;;;;;;;11.02;64.60;102367.78;4989795;28;20038;-87
2022/05/01 06:35:36;;;;;;;22.23;14.75;;;;;;;11.10;64.29;102363.25;4976486;28;20022;-87
2022/05/01 06:38:01;;;;;;;22.73;14.57;;;;;;;11.16;64.20;102343.72;4991110;28;20046;-87
2022/05/01 06:40:27;;;;;;;23.80;14.98;;;;;;;11.32;63.55;102371.66;4977829;28;20100;-87
2022/05/01 06:42:52;;;;;;;21.50;14.05;;;;;;;11.28;63.74;102358.50;4993165;28;20113;-87
2022/05/01 06:45:18;;;;;;;28.17;16.75;;;;;;;11.46;63.36;102374.91;4976666;28;20050;-87
2022/05/01 06:47:43;;;;;;;21.65;14.88;;;;;;;11.48;63.41;102353.72;4992456;28;20038;-88
2022/05/01 06:50:09;;;;;;;21.48;14.77;;;;;;;11.57;62.88;102357.97;4970595;28;20108;-87
2022/05/01 06:52:34;;;;;;;26.05;15.15;;;;;;;11.69;62.83;102370.94;4980714;28;20026;-87
2022/05/01 06:55:00;;;;;;;21.27;14.35;;;;;;;11.71;64.13;102367.38;4990869;28;20505;-87
2022/05/01 06:57:26;;;;;;;22.95;14.20;;;;;;;11.80;62.55;102373.34;4975719;28;20049;-89
2022/05/01 06:59:52;;;;;;;22.17;15.20;;;;;;;11.87;62.08;102367.06;4975097;28;20046;-90
2022/05/01 07:02:18;;;;;;;22.13;14.43;;;;;;;11.74;62.63;102356.69;4988924;28;20033;-90
2022/05/01 07:04:43;;;;;;;22.35;14.68;;;;;;;11.86;62.61;102352.09;4996837;28;20030;-91
2022/05/01 07:07:08;;;;;;;21.45;14.50;;;;;;;11.93;62.62;102353.69;4978364;28;20049;-90
2022/05/01 07:09:34;;;;;;;21.63;14.00;;;;;;;12.03;61.64;102359.66;4973716;28;20037;-90
2022/05/01 07:12:00;;;;;;;22.65;15.07;;;;;;;12.05;61.90;102355.22;4974527;28;20030;-90
2022/05/01 07:14:25;;;;;;;22.92;14.48;;;;;;;12.23;60.68;102366.28;4970740;28;20116;-90
2022/05/01 07:16:50;;;;;;;20.75;13.27;;;;;;;12.34;60.05;102362.50;4993977;28;20046;-89
2022/05/01 07:19:16;;;;;;;19.92;13.48;;;;;;;12.46;61.33;102362.22;4975171;28;20031;-89
2022/05/01 07:21:41;;;;;;;24.10;15.23;;;;;;;12.54;60.46;102354.94;4975707;28;20029;-89
2022/05/01 07:24:07;;;;;;;22.77;14.30;;;;;;;12.72;59.86;102362.44;4992997;28;20119;-90
2022/05/01 07:26:35;;;;;;;19.98;13.95;;;;;;;12.85;59.09;102359.50;4993551;28;20038;-90
2022/05/01 07:29:02;;;;;;;22.15;14.13;;;;;;;12.84;58.46;102361.28;4990746;28;20378;-90
2022/05/01 07:31:27;;;;;;;19.15;13.25;;;;;;;12.93;58.14;102354.88;4990718;28;20075;-89
2022/05/01 07:33:53;;;;;;;17.95;13.63;;;;;;;13.13;58.85;102371.13;4987516;28;20547;-90
2022/05/01 07:36:19;;;;;;;20.00;13.07;;;;;;;13.28;58.32;102368.09;4980816;28;20038;-89
2022/05/01 07:38:45;;;;;;;20.77;13.20;;;;;;;13.47;56.79;102367.59;4994643;28;20041;-89
2022/05/01 07:41:10;;;;;;;17.15;12.75;;;;;;;13.60;57.14;102369.00;4993062;28;20034;-89
2022/05/01 07:43:36;;;;;;;21.25;12.25;;;;;;;13.54;56.33;102345.28;4990353;28;20030;-89
2022/05/01 07:46:02;;;;;;;17.98;12.63;;;;;;;13.71;56.41;102374.03;4991680;28;20042;-88
2022/05/01 07:48:27;;;;;;;20.83;11.73;;;;;;;13.72;55.09;102368.66;4988870;28;20026;-89
2022/05/01 07:50:53;;;;;;;19.02;12.18;;;;;;;13.81;55.40;102377.28;4975902;28;20049;-89
2022/05/01 07:53:18;;;;;;;17.17;12.00;;;;;;;13.77;54.50;102377.38;4975284;28;20109;-89
2022/05/01 07:55:43;;;;;;;22.60;12.07;;;;;;;13.79;54.36;102358.72;4973095;28;20033;-89
2022/05/01 07:58:09;;;;;;;17.20;11.80;;;;;;;14.13;54.26;102369.22;4978875;28;20029;-89
2022/05/01 08:00:34;;;;;;;16.50;11.80;;;;;;;14.80;52.81;102368.88;4977483;28;20124;-89
2022/05/01 08:05:44;;;;;;;16.20;11.05;;;;;;;16.09;49.46;102373.16;4990565;28;21158;-89
2022/05/01 08:08:09;;;;;;;19.70;11.68;;;;;;;16.14;47.85;102363.16;4993202;28;20030;-89
2022/05/01 08:10:35;;;;;;;17.52;12.23;;;;;;;16.15;47.76;102362.22;4972461;28;20141;-89
2022/05/01 08:13:00;;;;;;;17.98;12.05;;;;;;;16.35;47.79;102357.91;4995931;28;20021;-89
2022/05/01 08:15:25;;;;;;;17.25;11.30;;;;;;;16.88;47.08;102369.09;4972129;28;20034;-88
2022/05/01 08:17:51;;;;;;;17.95;11.80;;;;;;;17.53;46.36;102362.69;4974851;28;20501;-88
2022/05/01 08:23:13;;;;;;;18.48;11.43;;;;;;;18.78;42.24;102366.56;4978998;28;20056;-89
2022/05/01 08:25:39;;;;;;;14.48;11.40;;;;;;;18.97;41.86;102350.41;4989256;28;20112;-90
2022/05/01 08:28:06;;;;;;;16.73;11.50;;;;;;;19.23;40.76;102349.06;4988509;28;20079;-88
2022/05/01 08:30:31;;;;;;;14.30;11.43;;;;;;;19.45;39.51;102359.53;4968043;28;20048;-89
2022/05/01 08:32:57;;;;;;;18.88;10.85;;;;;;;19.53;39.35;102346.56;4968147;28;20482;-89
2022/05/01 08:35:22;;;;;;;15.45;10.57;;;;;;;19.72;40.12;102350.97;4990512;28;20045;-89
2022/05/01 08:37:47;;;;;;;14.27;9.38;;;;;;;19.83;37.84;102346.75;4988780;28;20135;-89
2022/05/01 08:40:14;;;;;;;14.55;10.57;;;;;;;19.91;37.78;102357.09;4989469;28;20026;-89
2022/05/01 08:42:40;;;;;;;15.00;10.55;;;;;;;20.22;38.08;102358.91;4969801;28;20026;-88
2022/05/01 08:45:10;;;;;;;13.60;9.43;;;;;;;20.73;37.21;102362.25;4972361;28;20481;-89
2022/05/01 08:47:42;;;;;;;15.55;10.25;;;;;;;20.78;36.83;102343.16;4975381;28;20033;-89
2022/05/01 08:50:09;;;;;;;14.45;9.82;;;;;;;21.29;36.36;102343.69;4976111;28;20509;-89
2022/05/01 08:52:37;;;;;;;12.88;9.05;;;;;;;21.73;34.63;102349.03;4973629;28;20037;-89
2022/05/01 08:55:05;;;;;;;14.02;9.43;;;;;;;21.78;34.02;102336.13;4993931;28;20034;-88
2022/05/01 08:57:33;;;;;;;13.10;8.90;;;;;;;21.61;32.85;102341.72;4971530;28;20101;-90
2022/05/01 08:59:58;;;;;;;10.27;7.82;;;;;;;21.03;34.40;102335.38;4981009;28;20360;-90
2022/05/01 09:02:25;;;;;;;11.65;6.65;;;;;;;20.97;33.13;102346.50;4966020;28;20145;-90
2022/05/01 09:04:50;;;;;;;12.35;8.02;;;;;;;21.10;34.13;102331.34;4969750;28;20030;-89
2022/05/01 09:07:16;;;;;;;11.52;7.53;;;;;;;20.46;34.60;102336.97;4967779;28;20502;-89
2022/05/01 09:09:41;;;;;;;9.90;7.70;;;;;;;19.70;32.87;102345.69;4973244;28;20464;-89
2022/05/01 09:14:51;;;;;;;7.63;5.97;;;;;;;20.00;33.99;102337.75;4968890;28;20405;-89
2022/05/01 09:17:23;;;;;;;9.23;6.60;;;;;;;20.26;34.55;102333.59;4970102;28;20243;-90
2022/05/01 09:19:51;;;;;;;9.75;6.65;;;;;;;20.02;32.13;102348.44;4971908;28;20722;-88
2022/05/01 09:22:17;;;;;;;8.98;6.88;;;;;;;20.15;32.14;102340.56;4968248;28;20093;-89
2022/05/01 09:24:43;;;;;;;7.03;5.55;;;;;;;20.23;31.25;102333.75;4971534;28;20445;-90
2022/05/01 09:27:32;;;;;;;6.40;5.65;;;;;;;20.20;33.78;102352.75;4969152;28;20072;-89
2022/05/01 09:30:08;;;;;;;8.65;5.45;;;;;;;20.45;33.15;102344.16;4968763;28;20043;-89
2022/05/01 09:32:38;;;;;;;6.50;4.95;;;;;;;20.67;31.47;102348.31;4982335;28;20039;-90
2022/05/01 09:35:12;;;;;;;8.98;5.40;;;;;;;20.66;32.18;102341.19;4969251;28;20042;-90
2022/05/01 09:37:38;;;;;;;7.85;6.20;;;;;;;20.57;30.79;102335.44;4974468;28;20045;-89
2022/05/01 09:40:04;;;;;;;7.40;5.45;;;;;;;20.55;30.69;102344.53;4973370;28;20046;-90
2022/05/01 09:42:34;;;;;;;7.68;6.00;;;;;;;20.62;32.27;102340.53;4970773;28;20037;-89
2022/05/01 09:45:14;;;;;;;8.25;6.60;;;;;;;20.76;32.57;102350.47;4964604;28;20027;-88
2022/05/01 09:47:45;;;;;;;7.63;6.30;;;;;;;20.89;30.94;102340.72;4978456;28;20195;-88
2022/05/01 09:50:13;;;;;;;9.35;6.75;;;;;;;20.98;29.51;102337.47;4967446;28;20065;-89
2022/05/01 09:53:01;;;;;;;6.30;5.70;;;;;;;20.81;30.95;102335.81;4967716;28;20030;-89
2022/05/01 09:55:29;;;;;;;10.18;6.50;;;;;;;20.78;29.98;102338.66;4972068;28;20027;-89
2022/05/01 09:58:08;;;;;;;10.57;5.93;;;;;;;20.97;31.71;102338.41;4971348;28;20052;-88
2022/05/01 10:00:35;;;;;;;7.40;6.03;;;;;;;20.71;29.60;102348.06;4967339;28;20105;-88
2022/05/01 10:03:22;;;;;;;6.90;5.78;;;;;;;20.97;30.89;102342.94;4968606;28;20069;-88
2022/05/01 10:05:49;;;;;;;8.18;6.00;;;;;;;20.77;28.43;102328.00;4966300;28;20927;-87
2022/05/01 10:08:16;;;;;;;7.05;5.95;;;;;;;20.93;28.99;102336.00;4975939;28;21014;-87
2022/05/01 10:10:44;;;;;;;10.88;7.00;;;;;;;20.94;28.10;102341.31;4972534;28;20093;-87
2022/05/01 10:13:10;;;;;;;9.52;6.80;;;;;;;20.50;28.30;102333.19;4970016;28;20110;-87
2022/05/01 10:15:36;;;;;;;7.50;6.50;;;;;;;19.84;28.91;102328.84;4971588;28;20043;-88
2022/05/01 10:18:02;;;;;;;9.63;6.78;;;;;;;19.65;30.43;102331.66;4971756;28;20750;-87
2022/05/01 10:20:28;;;;;;;9.70;6.88;;;;;;;19.46;30.78;102326.41;4969062;28;20474;-88
2022/05/01 10:22:55;;;;;;;9.85;5.80;;;;;;;19.44;31.69;102328.28;4971982;28;20061;-88
2022/05/01 10:25:20;;;;;;;9.52;6.20;;;;;;;19.44;30.73;102328.28;4974106;28;20485;-88
2022/05/01 10:28:22;;;;;;;8.65;5.65;;;;;;;19.68;32.85;102331.50;4973945;28;20074;-87
2022/05/01 10:34:32;;;;;;;9.10;6.15;;;;;;;19.92;31.74;102334.66;4972694;28;20045;-88
2022/05/01 10:37:19;;;;;;;7.80;5.88;;;;;;;20.03;29.91;102331.34;4975709;28;20611;-89
2022/05/01 10:39:46;;;;;;;7.80;6.35;;;;;;;19.77;28.90;102312.22;4988125;28;20054;-88
2022/05/01 10:42:12;;;;;;;11.07;6.38;;;;;;;19.43;29.05;102310.47;4988201;28;20510;-87
2022/05/01 10:44:39;;;;;;;9.23;6.88;;;;;;;18.28;31.68;102305.66;4970896;28;20038;-87
2022/05/01 10:47:37;;;;;;;9.27;7.00;;;;;;;18.24;32.94;102317.47;4971892;28;20030;-88
2022/05/01 10:50:08;;;;;;;10.07;6.38;;;;;;;18.27;33.03;102311.94;4971047;28;20644;-87
2022/05/01 10:52:33;;;;;;;8.75;6.18;;;;;;;18.25;33.06;102313.81;4977379;28;20058;-87
2022/05/01 10:55:04;;;;;;;9.32;6.95;;;;;;;18.42;33.50;102307.66;4972019;28;20054;-89
2022/05/01 10:57:30;;;;;;;7.28;6.57;;;;;;;18.02;32.72;102306.91;4966396;28;20121;-88
2022/05/01 11:00:06;;;;;;;9.10;7.00;;;;;;;17.88;33.65;102297.81;4963671;28;20099;-87
2022/05/01 11:02:35;;;;;;;8.70;7.60;;;;;;;17.85;34.53;102305.03;4965644;28;20031;-86
2022/05/01 11:05:01;;;;;;;7.82;7.03;;;;;;;18.00;33.97;102294.53;4965060;28;20038;-90
2022/05/01 11:07:27;;;;;;;9.25;7.53;;;;;;;17.88;34.30;102292.47;4980113;28;20065;-87
2022/05/01 11:09:55;;;;;;;13.07;6.57;;;;;;;17.86;36.45;102273.81;4969230;28;20061;-88
2022/05/01 11:12:22;;;;;;;8.13;5.85;;;;;;;18.32;35.85;102287.59;4979579;28;20039;-88
2022/05/01 11:15:03;;;;;;;7.60;5.55;;;;;;;18.65;34.24;102285.03;4990703;28;20038;-87
2022/05/01 11:17:36;;;;;;;9.30;6.95;;;;;;;19.01;32.84;102292.16;4971845;28;20046;-88
2022/05/01 11:20:23;;;;;;;9.18;7.00;;;;;;;19.11;32.84;102293.41;4970256;28;20512;-88
2022/05/01 11:22:49;;;;;;;8.23;6.15;;;;;;;19.27;32.50;102286.28;4972321;28;20026;-88
2022/05/01 11:25:36;;;;;;;8.82;7.00;;;;;;;19.33;32.90;102267.19;4974008;28;20044;-87
2022/05/01 11:28:02;;;;;;;10.68;6.80;;;;;;;19.13;32.27;102278.13;4972614;28;20030;-88
2022/05/01 11:30:27;;;;;;;10.43;7.28;;;;;;;19.00;32.39;102279.72;4966615;28;20041;-87
2022/05/01 11:33:08;;;;;;;8.73;6.70;;;;;;;18.95;32.96;102276.41;4963405;28;20395;-87
2022/05/01 11:35:58;;;;;;;9.30;6.97;;;;;;;18.95;33.41;102263.88;4972046;28;20286;-89
2022/05/01 11:38:32;;;;;;;10.10;7.47;;;;;;;19.20;31.98;102270.59;4971443;28;20034;-89
2022/05/01 11:41:00;;;;;;;9.60;7.30;;;;;;;19.42;32.09;102264.97;4969198;28;20184;-88